createdAt,value
2022-09-15T00:00:39.283Z,97897.59
2022-09-15T00:03:24.385Z,97902.25
2022-09-15T00:06:09.960Z,97899.19
2022-09-15T00:08:55.189Z,97888.06
2022-09-15T00:11:40.252Z,97884.97
2022-09-15T00:14:25.212Z,97883.66
2022-09-15T00:17:10.327Z,97880.31
2022-09-15T00:19:57.800Z,97879.56
2022-09-15T00:22:43.376Z,97872.81
2022-09-15T00:25:28.188Z,97878.78
2022-09-15T00:28:15.247Z,97868.69
2022-09-15T00:31:00.094Z,97863.81
2022-09-15T00:33:50.255Z,97858.88
2022-09-15T00:36:35.103Z,97856.88
2022-09-15T00:39:20.121Z,97841.63
2022-09-15T00:42:05.252Z,97844.19
2022-09-15T00:44:56.361Z,97855.81
2022-09-15T00:47:41.486Z,97859.19
2022-09-15T00:50:26.602Z,97864.56
2022-09-15T00:53:12.950Z,97875.91
2022-09-15T00:55:59.810Z,97864.72
2022-09-15T00:58:56.867Z,97864.19
2022-09-15T01:01:44.290Z,97863.63
2022-09-15T01:04:29.596Z,97855.59
2022-09-15T01:07:18.348Z,97857.38
2022-09-15T01:10:28.947Z,97864.06
2022-09-15T01:13:14.659Z,97860.44
2022-09-15T01:19:21.403Z,97856.88
2022-09-15T01:22:05.999Z,97856.66
2022-09-15T01:25:00.188Z,97862.38
2022-09-15T01:28:03.407Z,97861.59
2022-09-15T01:31:17.297Z,97860.81
2022-09-15T01:34:08.858Z,97864.66
2022-09-15T01:37:02.713Z,97867.00
2022-09-15T01:39:52.197Z,97863.34
2022-09-15T01:42:37.891Z,97869.28
2022-09-15T01:45:30.458Z,97859.72
2022-09-15T01:48:17.804Z,97861.53
2022-09-15T01:51:05.544Z,97846.56
2022-09-15T01:53:52.378Z,97847.34
2022-09-15T01:56:38.962Z,97843.72
2022-09-15T01:59:24.670Z,97836.22
2022-09-15T02:02:22.409Z,97829.78
2022-09-15T02:05:17.538Z,97821.28
2022-09-15T02:08:04.922Z,97816.66
2022-09-15T02:11:04.598Z,97811.25
2022-09-15T02:14:05.586Z,97808.16
2022-09-15T02:16:53.422Z,97801.44
2022-09-15T02:19:41.192Z,97796.81
2022-09-15T02:22:32.156Z,97795.31
2022-09-15T02:25:24.797Z,97798.91
2022-09-15T02:28:11.889Z,97794.03
2022-09-15T02:30:58.767Z,97806.19
2022-09-15T02:34:10.302Z,97797.16
2022-09-15T02:36:56.586Z,97801.03
2022-09-15T02:39:48.692Z,97792.97
2022-09-15T02:42:33.887Z,97804.09
2022-09-15T02:45:19.612Z,97809.00
2022-09-15T02:48:08.686Z,97808.72
2022-09-15T02:50:53.176Z,97807.16
2022-09-15T02:53:38.249Z,97810.53
2022-09-15T02:56:23.354Z,97816.47
2022-09-15T02:59:08.488Z,97811.31
2022-09-15T03:01:53.582Z,97819.34
2022-09-15T03:04:38.382Z,97826.81
2022-09-15T03:07:24.341Z,97830.66
2022-09-15T03:10:11.505Z,97836.63
2022-09-15T03:12:56.068Z,97825.50
2022-09-15T03:15:41.176Z,97822.91
2022-09-15T03:18:26.149Z,97819.56
2022-09-15T03:21:13.441Z,97821.38
2022-09-15T03:23:58.331Z,97813.13
2022-09-15T03:26:43.095Z,97800.47
2022-09-15T03:29:28.090Z,97794.81
2022-09-15T03:32:13.416Z,97792.22
2022-09-15T03:34:58.662Z,97794.03
2022-09-15T03:37:43.383Z,97793.25
2022-09-15T03:40:28.553Z,97796.63
2022-09-15T03:43:18.520Z,97791.44
2022-09-15T03:46:05.850Z,97792.22
2022-09-15T03:48:50.867Z,97786.00
2022-09-15T03:51:35.883Z,97772.81
2022-09-15T03:54:20.961Z,97768.38
2022-09-15T03:57:06.034Z,97765.53
2022-09-15T03:59:50.944Z,97762.47
2022-09-15T04:02:35.903Z,97744.34
2022-09-15T04:05:20.849Z,97738.41
2022-09-15T04:08:05.726Z,97739.94
2022-09-15T04:10:50.669Z,97744.06
2022-09-15T04:13:37.312Z,97763.44
2022-09-15T04:16:23.959Z,97771.41
2022-09-15T04:19:08.827Z,97769.59
2022-09-15T04:21:53.775Z,97768.00
2022-09-15T04:24:38.872Z,97768.22
2022-09-15T04:27:23.911Z,97763.53
2022-09-15T04:30:09.404Z,97769.19
2022-09-15T04:32:54.246Z,97766.06
2022-09-15T04:35:39.482Z,97763.94
2022-09-15T04:38:24.431Z,97763.66
2022-09-15T04:41:10.173Z,97755.81
2022-09-15T04:43:55.244Z,97759.59
2022-09-15T04:46:40.182Z,97758.75
2022-09-15T04:49:25.083Z,97759.75
2022-09-15T04:52:09.969Z,97760.50
2022-09-15T04:54:55.069Z,97761.25
2022-09-15T04:57:39.975Z,97756.09
2022-09-15T05:00:26.356Z,97751.69
2022-09-15T05:03:13.963Z,97747.75
2022-09-15T05:05:58.934Z,97745.41
2022-09-15T05:08:52.174Z,97739.84
2022-09-15T05:11:38.046Z,97739.00
2022-09-15T05:14:22.804Z,97720.53
2022-09-15T05:17:08.104Z,97718.63
2022-09-15T05:19:54.032Z,97729.47
2022-09-15T05:22:41.867Z,97719.88
2022-09-15T05:25:27.721Z,97723.25
2022-09-15T05:28:15.645Z,97724.97
2022-09-15T05:31:02.815Z,97715.88
2022-09-15T05:33:50.055Z,97711.66
2022-09-15T05:36:35.782Z,97707.44
2022-09-15T05:39:21.229Z,97715.63
2022-09-15T05:42:09.900Z,97711.13
2022-09-15T05:44:56.017Z,97701.13
2022-09-15T05:47:41.007Z,97698.41
2022-09-15T05:50:26.062Z,97688.88
2022-09-15T05:53:11.035Z,97692.94
2022-09-15T05:55:57.802Z,97690.22
2022-09-15T05:58:56.525Z,97686.31
2022-09-15T06:01:42.676Z,97688.25
2022-09-15T06:04:27.738Z,97684.78
2022-09-15T06:07:12.664Z,97686.69
2022-09-15T06:09:57.567Z,97683.41
2022-09-15T06:12:42.428Z,97677.09
2022-09-15T06:15:27.389Z,97674.97
2022-09-15T06:18:12.662Z,97666.75
2022-09-15T06:21:04.079Z,97661.47
2022-09-15T06:24:00.835Z,97663.66
2022-09-15T06:26:48.413Z,97658.94
2022-09-15T06:29:33.489Z,97653.66
2022-09-15T06:32:18.652Z,97655.94
2022-09-15T06:35:06.729Z,97649.59
2022-09-15T06:37:56.174Z,97643.28
2022-09-15T06:41:10.116Z,97646.28
2022-09-15T06:48:24.813Z,97654.75
2022-09-15T07:13:25.150Z,97647.38
2022-09-15T07:17:00.570Z,97649.22
2022-09-15T07:19:51.668Z,97650.66
2022-09-15T07:22:36.589Z,97662.16
2022-09-15T07:25:30.529Z,97668.91
2022-09-15T07:28:41.295Z,97674.88
2022-09-15T07:31:29.317Z,97677.31
2022-09-15T07:34:15.427Z,97672.75
2022-09-15T07:37:00.178Z,97668.91
2022-09-15T07:39:45.826Z,97663.09
2022-09-15T07:42:35.278Z,97654.38
2022-09-15T07:45:21.558Z,97652.22
2022-09-15T07:48:06.442Z,97659.72
2022-09-15T07:50:51.621Z,97661.56
2022-09-15T07:53:36.732Z,97660.88
2022-09-15T07:56:22.768Z,97659.78
2022-09-15T07:59:07.603Z,97666.03
2022-09-15T08:01:52.637Z,97666.19
2022-09-15T08:04:37.362Z,97660.34
2022-09-15T08:07:22.576Z,97661.25
2022-09-15T08:10:09.318Z,97650.22
2022-09-15T08:12:58.533Z,97660.50
2022-09-15T08:15:44.670Z,97663.09
2022-09-15T08:18:29.607Z,97661.59
2022-09-15T08:21:23.175Z,97657.94
2022-09-15T08:24:12.900Z,97642.66
2022-09-15T08:26:57.684Z,97650.38
2022-09-15T08:29:43.925Z,97655.44
2022-09-15T08:32:29.298Z,97638.75
2022-09-15T08:35:16.306Z,97628.50
2022-09-15T08:38:02.415Z,97632.13
2022-09-15T08:40:47.663Z,97629.50
2022-09-15T08:43:45.698Z,97632.66
2022-09-15T08:46:42.368Z,97617.88
2022-09-15T08:49:51.535Z,97628.94
2022-09-15T08:53:01.266Z,97630.47
2022-09-15T08:55:55.144Z,97620.66
2022-09-15T08:58:40.294Z,97622.97
2022-09-15T09:02:06.835Z,97622.56
2022-09-15T09:05:29.587Z,97613.63
2022-09-15T09:08:52.907Z,97609.19
2022-09-15T09:12:22.294Z,97607.63
2022-09-15T09:15:42.817Z,97610.25
2022-09-15T09:19:03.264Z,97616.31
2022-09-15T09:22:05.742Z,97620.03
2022-09-15T09:24:53.874Z,97611.34
2022-09-15T09:27:40.782Z,97605.88
2022-09-15T09:30:29.045Z,97609.53
2022-09-15T09:33:38.699Z,97603.97
2022-09-15T09:36:25.301Z,97599.59
2022-09-15T09:39:14.672Z,97609.72
2022-09-15T09:42:01.696Z,97606.88
2022-09-15T09:44:46.932Z,97610.56
2022-09-15T09:47:36.085Z,97603.06
2022-09-15T09:50:38.147Z,97601.13
2022-09-15T09:53:32.039Z,97595.50
2022-09-15T10:00:40.089Z,97592.13
2022-09-15T10:07:24.181Z,97598.59
2022-09-15T10:10:22.482Z,97604.28
2022-09-15T10:13:10.754Z,97595.75
2022-09-15T10:15:59.759Z,97597.03
2022-09-15T10:18:45.055Z,97588.53
2022-09-15T10:21:29.890Z,97598.97
2022-09-15T10:24:44.144Z,97604.69
2022-09-15T10:27:34.127Z,97594.44
2022-09-15T10:30:19.385Z,97603.81
2022-09-15T10:33:24.918Z,97595.09
2022-09-15T10:36:30.306Z,97591.41
2022-09-15T10:44:01.557Z,97587.75
2022-09-15T10:47:07.827Z,97578.56
2022-09-15T10:50:25.239Z,97575.78
2022-09-15T10:53:52.774Z,97563.38
2022-09-15T10:56:43.562Z,97557.69
2022-09-15T11:03:26.814Z,97554.03
2022-09-15T11:06:22.507Z,97551.00
2022-09-15T11:09:17.247Z,97553.63
2022-09-15T11:12:34.943Z,97551.19
2022-09-15T11:16:01.918Z,97543.22
2022-09-15T11:18:49.578Z,97554.38
2022-09-15T11:21:51.516Z,97553.03
2022-09-15T11:25:23.999Z,97554.41
2022-09-15T11:28:35.228Z,97553.50
2022-09-15T11:31:48.784Z,97546.28
2022-09-15T11:34:46.478Z,97545.69
2022-09-15T11:40:38.814Z,97536.16
2022-09-15T11:43:49.847Z,97540.59
2022-09-15T11:46:45.159Z,97540.31
2022-09-15T11:50:18.366Z,97540.16
2022-09-15T11:53:11.662Z,97539.53
2022-09-15T11:56:09.147Z,97540.78
2022-09-15T11:59:32.815Z,97543.25
2022-09-15T12:02:45.544Z,97534.81
2022-09-15T12:05:48.626Z,97529.47
2022-09-15T12:09:00.225Z,97530.06
2022-09-15T12:11:49.167Z,97526.72
2022-09-15T12:14:44.083Z,97540.47
2022-09-15T12:18:06.570Z,97534.97
2022-09-15T12:21:30.955Z,97533.59
2022-09-15T12:24:45.276Z,97538.66
2022-09-15T12:27:30.936Z,97533.00
2022-09-15T12:30:39.781Z,97533.59
2022-09-15T12:33:42.895Z,97538.19
2022-09-15T12:36:30.955Z,97531.44
2022-09-15T12:39:29.029Z,97516.28
2022-09-15T12:42:27.274Z,97519.06
2022-09-15T12:45:31.198Z,97519.94
2022-09-15T12:48:24.335Z,97516.59
2022-09-15T12:51:10.847Z,97508.47
2022-09-15T12:54:00.014Z,97503.44
2022-09-15T12:56:51.721Z,97504.59
2022-09-15T12:59:36.495Z,97510.53
2022-09-15T13:02:44.503Z,97518.06
2022-09-15T13:05:41.193Z,97505.66
2022-09-15T13:08:29.229Z,97501.97
2022-09-15T13:11:23.255Z,97501.00
2022-09-15T13:14:19.170Z,97495.69
2022-09-15T13:17:17.890Z,97499.72
2022-09-15T13:20:14.940Z,97490.88
2022-09-15T13:23:03.007Z,97487.09
2022-09-15T13:25:49.503Z,97482.34
2022-09-15T13:28:36.701Z,97477.28
2022-09-15T13:31:29.142Z,97477.78
2022-09-15T13:38:16.922Z,97463.94
2022-09-15T13:41:18.679Z,97460.88
2022-09-15T13:44:24.666Z,97466.41
2022-09-15T13:47:25.828Z,97464.91
2022-09-15T13:50:21.157Z,97467.06
2022-09-15T13:53:43.250Z,97476.16
2022-09-15T13:56:40.764Z,97477.25
2022-09-15T13:59:30.550Z,97475.22
2022-09-15T14:02:16.241Z,97483.13
2022-09-15T14:05:01.242Z,97476.09
2022-09-15T14:07:59.195Z,97489.94
2022-09-15T14:10:52.191Z,97493.19
2022-09-15T14:13:42.961Z,97495.91
2022-09-15T14:16:36.615Z,97503.56
2022-09-15T14:19:27.713Z,97495.09
2022-09-15T14:22:27.656Z,97497.81
2022-09-15T14:25:16.487Z,97505.25
2022-09-15T14:28:01.761Z,97507.56
2022-09-15T14:30:47.878Z,97507.75
2022-09-15T14:33:38.174Z,97511.00
2022-09-15T14:36:31.350Z,97515.34
2022-09-15T14:39:22.974Z,97509.69
2022-09-15T14:42:21.948Z,97517.69
2022-09-15T14:48:18.160Z,97516.81
2022-09-15T14:51:12.764Z,97515.44
2022-09-15T14:53:59.814Z,97520.50
2022-09-15T14:56:45.726Z,97520.66
2022-09-15T14:59:43.754Z,97514.50
2022-09-15T15:02:57.746Z,97522.16
2022-09-15T15:05:47.173Z,97532.56
2022-09-15T15:08:51.793Z,97527.84
2022-09-15T15:11:39.535Z,97524.94
2022-09-15T15:14:25.510Z,97527.25
2022-09-15T15:17:29.699Z,97527.25
2022-09-15T15:20:29.706Z,97526.22
2022-09-15T15:23:19.753Z,97538.44
2022-09-15T15:26:37.478Z,97542.91
2022-09-15T15:29:54.571Z,97546.13
2022-09-15T15:32:42.447Z,97549.78
2022-09-15T15:35:28.655Z,97550.28
2022-09-15T15:38:19.783Z,97548.41
2022-09-15T15:41:05.844Z,97557.47
2022-09-15T15:44:07.268Z,97565.72
2022-09-15T15:47:01.874Z,97569.88
2022-09-15T15:50:11.761Z,97567.22
2022-09-15T15:52:52.354Z,97561.56
2022-09-15T15:55:40.147Z,97568.75
2022-09-15T15:58:24.861Z,97574.13
2022-09-15T16:01:11.213Z,97579.75
2022-09-15T16:03:56.390Z,97572.41
2022-09-15T16:06:42.937Z,97565.50
2022-09-15T16:09:27.814Z,97569.00
2022-09-15T16:12:14.901Z,97575.28
2022-09-15T16:14:59.529Z,97576.19
2022-09-15T16:17:46.851Z,97581.22
2022-09-15T16:20:31.969Z,97588.88
2022-09-15T16:23:19.161Z,97587.63
2022-09-15T16:26:04.941Z,97584.09
2022-09-15T16:28:50.730Z,97588.06
2022-09-15T16:31:36.113Z,97592.34
2022-09-15T16:34:21.926Z,97594.00
2022-09-15T16:37:06.982Z,97587.88
2022-09-15T16:39:52.008Z,97607.72
2022-09-15T16:42:37.084Z,97616.13
2022-09-15T16:45:28.268Z,97615.47
2022-09-15T16:48:13.270Z,97618.22
2022-09-15T16:54:02.776Z,97625.06
2022-09-15T16:56:47.781Z,97621.53
2022-09-15T16:59:32.707Z,97624.50
2022-09-15T17:02:18.363Z,97627.88
2022-09-15T17:05:15.637Z,97632.59
2022-09-15T17:08:00.944Z,97627.22
2022-09-15T17:10:47.007Z,97628.31
2022-09-15T17:13:33.433Z,97630.72
2022-09-15T17:16:19.088Z,97638.91
2022-09-15T17:19:03.795Z,97631.75
2022-09-15T17:21:49.689Z,97641.63
2022-09-15T17:24:34.526Z,97635.78
2022-09-15T17:27:19.320Z,97638.03
2022-09-15T17:30:05.122Z,97639.03
2022-09-15T17:32:50.904Z,97642.72
2022-09-15T17:35:36.396Z,97643.84
2022-09-15T17:38:21.889Z,97640.50
2022-09-15T17:41:18.033Z,97644.06
2022-09-15T17:44:02.717Z,97641.84
2022-09-15T17:46:47.798Z,97648.59
2022-09-15T17:49:32.597Z,97647.22
2022-09-15T17:52:17.856Z,97645.13
2022-09-15T17:55:12.408Z,97639.75
2022-09-15T17:57:59.626Z,97645.22
2022-09-15T18:00:45.806Z,97649.94
2022-09-15T18:03:36.363Z,97645.53
2022-09-15T18:06:20.905Z,97654.25
2022-09-15T18:09:06.054Z,97664.34
2022-09-15T18:11:50.857Z,97664.34
2022-09-15T18:14:35.983Z,97668.44
2022-09-15T18:17:20.970Z,97667.41
2022-09-15T18:20:06.008Z,97668.75
2022-09-15T18:22:51.551Z,97670.28
2022-09-15T18:25:36.236Z,97673.94
2022-09-15T18:28:21.236Z,97674.22
2022-09-15T18:31:06.738Z,97674.50
2022-09-15T18:33:51.772Z,97671.16
2022-09-15T18:36:36.797Z,97669.91
2022-09-15T18:39:21.805Z,97672.50
2022-09-15T18:42:06.918Z,97665.00
2022-09-15T18:44:51.922Z,97662.13
2022-09-15T18:47:37.165Z,97664.25
2022-09-15T18:50:23.339Z,97666.06
2022-09-15T18:53:08.918Z,97671.03
2022-09-15T18:55:53.714Z,97667.94
2022-09-15T18:58:38.774Z,97668.53
2022-09-15T19:01:23.738Z,97670.63
2022-09-15T19:04:08.740Z,97663.44
2022-09-15T19:06:53.540Z,97645.91
2022-09-15T19:09:39.248Z,97656.53
2022-09-15T19:12:24.489Z,97643.09
2022-09-15T19:15:11.701Z,97640.31
2022-09-15T19:17:56.447Z,97651.25
2022-09-15T19:20:41.446Z,97652.31
2022-09-15T19:23:26.193Z,97642.78
2022-09-15T19:26:14.794Z,97645.69
2022-09-15T19:28:59.764Z,97649.06
2022-09-15T19:31:44.770Z,97641.56
2022-09-15T19:34:29.897Z,97647.03
2022-09-15T19:37:18.810Z,97640.59
2022-09-15T19:40:07.834Z,97648.69
2022-09-15T19:42:52.967Z,97653.34
2022-09-15T19:45:41.750Z,97653.66
2022-09-15T19:48:27.207Z,97641.25
2022-09-15T19:51:13.977Z,97645.19
2022-09-15T19:53:59.300Z,97651.41
2022-09-15T19:56:44.055Z,97655.56
2022-09-15T19:59:31.718Z,97657.09
2022-09-15T20:02:17.030Z,97643.09
2022-09-15T20:05:01.899Z,97640.78
2022-09-15T20:07:47.507Z,97654.69
2022-09-15T20:10:32.224Z,97656.03
2022-09-15T20:13:17.993Z,97644.16
2022-09-15T20:16:03.371Z,97644.72
2022-09-15T20:18:50.125Z,97656.69
2022-09-15T20:21:52.522Z,97664.75
2022-09-15T20:24:37.510Z,97660.91
2022-09-15T20:27:22.486Z,97662.25
2022-09-15T20:30:07.936Z,97666.97
2022-09-15T20:32:52.847Z,97665.72
2022-09-15T20:35:37.817Z,97667.31
2022-09-15T20:38:22.877Z,97663.69
2022-09-15T20:41:09.634Z,97656.47
2022-09-15T20:43:54.650Z,97666.84
2022-09-15T20:46:40.242Z,97665.59
2022-09-15T20:49:25.263Z,97658.69
2022-09-15T20:52:10.756Z,97659.50
2022-09-15T20:54:55.672Z,97661.91
2022-09-15T20:57:40.423Z,97659.91
2022-09-15T21:00:27.775Z,97666.66
2022-09-15T21:03:15.383Z,97667.06
2022-09-15T21:06:06.030Z,97668.66
2022-09-15T21:08:52.378Z,97660.41
2022-09-15T21:11:37.116Z,97652.16
2022-09-15T21:14:22.037Z,97649.19
2022-09-15T21:17:07.123Z,97650.78
2022-09-15T21:19:51.908Z,97655.47
2022-09-15T21:22:37.341Z,97654.69
2022-09-15T21:25:22.811Z,97643.09
2022-09-15T21:28:07.819Z,97642.31
2022-09-15T21:30:53.382Z,97642.59
2022-09-15T21:33:38.722Z,97644.13
2022-09-15T21:36:29.012Z,97640.50
2022-09-15T21:39:13.953Z,97644.63
2022-09-15T21:41:58.807Z,97643.56
2022-09-15T21:44:44.017Z,97648.75
2022-09-15T21:47:29.507Z,97650.56
2022-09-15T21:50:14.223Z,97644.63
2022-09-15T21:52:59.031Z,97650.56
2022-09-15T21:55:44.265Z,97657.84
2022-09-15T21:58:35.414Z,97656.03
2022-09-15T22:01:24.646Z,97657.06
2022-09-15T22:04:10.395Z,97663.00
2022-09-15T22:06:55.319Z,97655.25
2022-09-15T22:09:40.194Z,97653.44
2022-09-15T22:12:25.291Z,97647.78
2022-09-15T22:15:10.356Z,97655.03
2022-09-15T22:17:55.351Z,97665.91
2022-09-15T22:20:40.312Z,97661.72
2022-09-15T22:23:25.364Z,97669.78
2022-09-15T22:26:22.195Z,97670.63
2022-09-15T22:29:07.341Z,97675.28
2022-09-15T22:31:52.317Z,97682.28
2022-09-15T22:34:37.266Z,97688.50
2022-09-15T22:37:26.878Z,97686.72
2022-09-15T22:40:11.867Z,97686.47
2022-09-15T22:42:57.229Z,97683.91
2022-09-15T22:45:42.126Z,97683.41
2022-09-15T22:48:27.371Z,97687.81
2022-09-15T22:51:12.929Z,97693.75
2022-09-15T22:53:57.802Z,97694.78
2022-09-15T22:56:42.699Z,97683.41
2022-09-15T22:59:27.412Z,97675.91
2022-09-15T23:02:12.508Z,97674.41
2022-09-15T23:04:57.507Z,97664.91
2022-09-15T23:07:42.481Z,97660.75
2022-09-15T23:10:27.914Z,97667.50
2022-09-15T23:13:13.033Z,97664.38
2022-09-15T23:15:58.083Z,97671.38
2022-09-15T23:18:43.134Z,97669.06
2022-09-15T23:21:28.088Z,97668.31
2022-09-15T23:24:13.726Z,97667.81
2022-09-15T23:26:58.685Z,97669.16
2022-09-15T23:29:43.456Z,97669.16
2022-09-15T23:32:28.130Z,97669.16
2022-09-15T23:35:13.212Z,97654.19
2022-09-15T23:37:58.716Z,97672.78
2022-09-15T23:40:44.407Z,97670.47
2022-09-15T23:43:30.028Z,97666.63
2022-09-15T23:46:15.649Z,97668.91
2022-09-15T23:49:00.666Z,97663.75
2022-09-15T23:51:45.680Z,97656.78
2022-09-15T23:54:30.632Z,97647.19
2022-09-15T23:57:15.587Z,97651.34
